sensor_id;sensor_type;location;lat;lon;timestamp;pressure;altitude;pressure_sealevel;temperature;humidity
20696;BME280;10507;52.754;13.040;2023-11-21T00:01:04;100371.25;;;6.75;100.00
20696;BME280;10507;52.754;13.040;2023-11-21T00:03:32;100374.84;;;6.74;100.00
20696;BME280;10507;52.754;13.040;2023-11-21T00:06:00;100394.22;;;6.76;100.00
20696;BME280;10507;52.754;13.040;2023-11-21T00:08:30;100389.06;;;6.73;100.00
20696;BME280;10507;52.754;13.040;2023-11-21T00:10:58;100394.38;;;6.73;100.00
20696;BME280;10507;52.754;13.040;2023-11-21T00:13:27;100386.53;;;6.68;100.00
20696;BME280;10507;52.754;13.040;2023-11-21T00:15:55;100409.38;;;6.72;100.00
20696;BME280;10507;52.754;13.040;2023-11-21T00:18:22;100419.94;;;6.74;100.00
20696;BME280;10507;52.754;13.040;2023-11-21T00:20:50;100428.94;;;6.70;100.00
20696;BME280;10507;52.754;13.040;2023-11-21T00:23:18;100450.06;;;6.73;100.00
20696;BME280;10507;52.754;13.040;2023-11-21T00:25:48;100448.44;;;6.69;100.00
20696;BME280;10507;52.754;13.040;2023-11-21T00:28:15;100443.19;;;6.67;100.00
20696;BME280;10507;52.754;13.040;2023-11-21T00:30:43;100469.59;;;6.70;100.00
20696;BME280;10507;52.754;13.040;2023-11-21T00:33:11;100449.47;;;6.64;100.00
20696;BME280;10507;52.754;13.040;2023-11-21T00:35:40;100435.53;;;6.59;100.00
20696;BME280;10507;52.754;13.040;2023-11-21T00:38:08;100427.63;;;6.58;100.00
20696;BME280;10507;52.754;13.040;2023-11-21T00:40:36;100431.25;;;6.55;100.00
20696;BME280;10507;52.754;13.040;2023-11-21T00:43:05;100418.09;;;6.52;100.00
20696;BME280;10507;52.754;13.040;2023-11-21T00:45:33;100422.72;;;6.47;100.00
20696;BME280;10507;52.754;13.040;2023-11-21T00:48:03;100424.56;;;6.45;100.00
20696;BME280;10507;52.754;13.040;2023-11-21T00:50:32;100433.50;;;6.42;100.00
20696;BME280;10507;52.754;13.040;2023-11-21T00:53:00;100447.69;;;6.41;100.00
20696;BME280;10507;52.754;13.040;2023-11-21T00:55:28;100443.28;;;6.40;100.00
20696;BME280;10507;52.754;13.040;2023-11-21T00:57:56;100436.34;;;6.36;100.00
20696;BME280;10507;52.754;13.040;2023-11-21T01:00:26;100435.44;;;6.37;100.00
20696;BME280;10507;52.754;13.040;2023-11-21T01:02:54;100432.84;;;6.36;100.00
20696;BME280;10507;52.754;13.040;2023-11-21T01:05:24;100444.25;;;6.38;100.00
20696;BME280;10507;52.754;13.040;2023-11-21T01:07:52;100460.06;;;6.41;100.00
20696;BME280;10507;52.754;13.040;2023-11-21T01:10:20;100415.31;;;6.32;100.00
20696;BME280;10507;52.754;13.040;2023-11-21T01:12:48;100408.28;;;6.31;100.00
20696;BME280;10507;52.754;13.040;2023-11-21T01:15:15;100410.09;;;6.30;100.00
20696;BME280;10507;52.754;13.040;2023-11-21T01:17:45;100387.16;;;6.28;100.00
20696;BME280;10507;52.754;13.040;2023-11-21T01:20:13;100376.66;;;6.26;100.00
20696;BME280;10507;52.754;13.040;2023-11-21T01:22:41;100375.78;;;6.26;100.00
20696;BME280;10507;52.754;13.040;2023-11-21T01:25:10;100344.41;;;6.13;100.00
20696;BME280;10507;52.754;13.040;2023-11-21T01:27:41;100358.44;;;6.17;100.00
20696;BME280;10507;52.754;13.040;2023-11-21T01:30:09;100376.91;;;6.18;100.00
20696;BME280;10507;52.754;13.040;2023-11-21T01:32:38;100343.47;;;6.14;100.00
20696;BME280;10507;52.754;13.040;2023-11-21T01:35:09;100351.38;;;6.16;100.00
20696;BME280;10507;52.754;13.040;2023-11-21T01:37:37;100335.53;;;6.14;100.00
20696;BME280;10507;52.754;13.040;2023-11-21T01:40:07;100328.56;;;6.12;100.00
20696;BME280;10507;52.754;13.040;2023-11-21T01:42:40;100344.41;;;6.13;100.00
20696;BME280;10507;52.754;13.040;2023-11-21T01:45:09;100340.81;;;6.14;100.00
20696;BME280;10507;52.754;13.040;2023-11-21T01:47:39;100325.03;;;6.11;100.00
20696;BME280;10507;52.754;13.040;2023-11-21T01:50:15;100324.25;;;6.09;100.00
20696;BME280;10507;52.754;13.040;2023-11-21T01:52:46;100329.50;;;6.11;100.00
20696;BME280;10507;52.754;13.040;2023-11-21T01:55:16;100325.09;;;6.10;100.00
20696;BME280;10507;52.754;13.040;2023-11-21T01:57:54;100313.63;;;6.09;100.00
20696;BME280;10507;52.754;13.040;2023-11-21T02:00:23;100353.00;;;6.20;100.00
20696;BME280;10507;52.754;13.040;2023-11-21T02:02:52;100347.56;;;6.23;100.00
20696;BME280;10507;52.754;13.040;2023-11-21T02:05:22;100327.34;;;6.20;100.00
20696;BME280;10507;52.754;13.040;2023-11-21T02:07:49;100311.66;;;6.14;100.00
20696;BME280;10507;52.754;13.040;2023-11-21T02:10:19;100316.97;;;6.14;100.00
20696;BME280;10507;52.754;13.040;2023-11-21T02:12:50;100306.38;;;6.14;100.00
20696;BME280;10507;52.754;13.040;2023-11-21T02:15:18;100324.78;;;6.19;100.00
20696;BME280;10507;52.754;13.040;2023-11-21T02:17:49;100306.44;;;6.13;100.00
20696;BME280;10507;52.754;13.040;2023-11-21T02:20:19;100329.31;;;6.15;100.00
20696;BME280;10507;52.754;13.040;2023-11-21T02:22:51;100329.31;;;6.15;100.00
20696;BME280;10507;52.754;13.040;2023-11-21T02:25:22;100329.44;;;6.12;100.00
20696;BME280;10507;52.754;13.040;2023-11-21T02:27:50;100359.16;;;6.20;100.00
20696;BME280;10507;52.754;13.040;2023-11-21T02:30:18;100348.56;;;6.20;100.00
20696;BME280;10507;52.754;13.040;2023-11-21T02:32:48;100353.78;;;6.23;100.00
20696;BME280;10507;52.754;13.040;2023-11-21T02:35:16;100336.97;;;6.23;100.00
20696;BME280;10507;52.754;13.040;2023-11-21T02:37:44;100350.19;;;6.24;100.00
20696;BME280;10507;52.754;13.040;2023-11-21T02:40:14;100342.34;;;6.21;100.00
20696;BME280;10507;52.754;13.040;2023-11-21T02:42:44;100360.84;;;6.23;100.00
20696;BME280;10507;52.754;13.040;2023-11-21T02:45:15;100343.25;;;6.20;100.00
20696;BME280;10507;52.754;13.040;2023-11-21T02:47:44;100355.47;;;6.24;100.00
20696;BME280;10507;52.754;13.040;2023-11-21T02:50:12;100344.19;;;6.19;100.00
20696;BME280;10507;52.754;13.040;2023-11-21T02:52:40;100350.41;;;6.18;100.00
20696;BME280;10507;52.754;13.040;2023-11-21T02:55:08;100351.38;;;6.16;100.00
20696;BME280;10507;52.754;13.040;2023-11-21T02:57:38;100337.56;;;6.08;100.00
20696;BME280;10507;52.754;13.040;2023-11-21T03:00:07;100345.56;;;6.06;100.00
20696;BME280;10507;52.754;13.040;2023-11-21T03:02:35;100353.50;;;6.06;100.00
20696;BME280;10507;52.754;13.040;2023-11-21T03:05:07;100349.25;;;6.02;100.00
20696;BME280;10507;52.754;13.040;2023-11-21T03:07:37;100384.28;;;6.10;100.00
20696;BME280;10507;52.754;13.040;2023-11-21T03:10:06;100389.59;;;6.10;100.00
20696;BME280;10507;52.754;13.040;2023-11-21T03:12:37;100392.13;;;6.13;100.00
20696;BME280;10507;52.754;13.040;2023-11-21T03:15:06;100396.59;;;6.11;100.00
20696;BME280;10507;52.754;13.040;2023-11-21T03:17:34;100394.00;;;6.10;100.00
20696;BME280;10507;52.754;13.040;2023-11-21T03:20:04;100394.91;;;6.10;100.00
20696;BME280;10507;52.754;13.040;2023-11-21T03:22:33;100382.66;;;6.06;100.00
20696;BME280;10507;52.754;13.040;2023-11-21T03:25:01;100377.19;;;6.11;100.00
20696;BME280;10507;52.754;13.040;2023-11-21T03:27:29;100394.66;;;6.16;100.00
20696;BME280;10507;52.754;13.040;2023-11-21T03:29:58;100374.50;;;6.12;100.00
20696;BME280;10507;52.754;13.040;2023-11-21T03:32:26;100359.50;;;6.11;100.00
20696;BME280;10507;52.754;13.040;2023-11-21T03:34:56;100382.22;;;6.18;100.00
20696;BME280;10507;52.754;13.040;2023-11-21T03:37:25;100326.19;;;6.04;100.00
20696;BME280;10507;52.754;13.040;2023-11-21T03:39:54;100356.03;;;6.09;100.00
20696;BME280;10507;52.754;13.040;2023-11-21T03:42:23;100356.81;;;6.13;100.00
20696;BME280;10507;52.754;13.040;2023-11-21T03:44:56;100327.22;;;6.00;100.00
20696;BME280;10507;52.754;13.040;2023-11-21T03:47:26;100357.19;;;6.02;100.00
20696;BME280;10507;52.754;13.040;2023-11-21T03:49:54;100338.69;;;6.00;100.00
20696;BME280;10507;52.754;13.040;2023-11-21T03:52:22;100341.59;;;5.94;100.00
20696;BME280;10507;52.754;13.040;2023-11-21T03:54:50;100341.50;;;5.96;100.00
20696;BME280;10507;52.754;13.040;2023-11-21T03:57:17;100363.50;;;5.98;100.00
20696;BME280;10507;52.754;13.040;2023-11-21T03:59:45;100318.94;;;5.84;100.00
20696;BME280;10507;52.754;13.040;2023-11-21T04:02:13;100330.38;;;5.84;100.00
20696;BME280;10507;52.754;13.040;2023-11-21T04:04:43;100319.88;;;5.83;100.00
20696;BME280;10507;52.754;13.040;2023-11-21T04:07:12;100315.34;;;5.85;100.00
20696;BME280;10507;52.754;13.040;2023-11-21T04:09:40;100334.63;;;5.90;100.00
20696;BME280;10507;52.754;13.040;2023-11-21T04:12:08;100328.50;;;5.88;100.00
20696;BME280;10507;52.754;13.040;2023-11-21T04:14:36;100338.09;;;5.92;100.00
20696;BME280;10507;52.754;13.040;2023-11-21T04:17:04;100337.19;;;5.92;100.00
20696;BME280;10507;52.754;13.040;2023-11-21T04:19:32;100296.28;;;5.75;100.00
20696;BME280;10507;52.754;13.040;2023-11-21T04:22:02;100329.53;;;5.84;100.00
20696;BME280;10507;52.754;13.040;2023-11-21T04:24:30;100329.53;;;5.84;100.00
20696;BME280;10507;52.754;13.040;2023-11-21T04:26:58;100321.59;;;5.84;100.00
20696;BME280;10507;52.754;13.040;2023-11-21T04:29:26;100335.69;;;5.84;100.00
20696;BME280;10507;52.754;13.040;2023-11-21T04:31:54;100324.28;;;5.82;100.00
20696;BME280;10507;52.754;13.040;2023-11-21T04:34:22;100347.91;;;5.89;100.00
20696;BME280;10507;52.754;13.040;2023-11-21T04:36:50;100325.00;;;5.88;100.00
20696;BME280;10507;52.754;13.040;2023-11-21T04:39:19;100354.84;;;5.93;100.00
20696;BME280;10507;52.754;13.040;2023-11-21T04:41:47;100347.75;;;5.93;100.00
20696;BME280;10507;52.754;13.040;2023-11-21T04:44:15;100341.63;;;5.91;100.00
20696;BME280;10507;52.754;13.040;2023-11-21T04:46:43;100316.25;;;5.86;100.00
20696;BME280;10507;52.754;13.040;2023-11-21T04:49:11;100345.13;;;5.92;100.00
20696;BME280;10507;52.754;13.040;2023-11-21T04:51:40;100309.31;;;5.81;100.00
20696;BME280;10507;52.754;13.040;2023-11-21T04:54:07;100307.69;;;5.77;100.00
20696;BME280;10507;52.754;13.040;2023-11-21T04:56:37;100332.34;;;5.79;100.00
20696;BME280;10507;52.754;13.040;2023-11-21T04:59:05;100329.66;;;5.81;100.00
20696;BME280;10507;52.754;13.040;2023-11-21T05:01:32;100318.09;;;5.83;100.00
20696;BME280;10507;52.754;13.040;2023-11-21T05:04:01;100305.09;;;5.76;100.00
20696;BME280;10507;52.754;13.040;2023-11-21T05:06:29;100323.47;;;5.80;100.00
20696;BME280;10507;52.754;13.040;2023-11-21T05:08:56;100317.34;;;5.78;100.00
20696;BME280;10507;52.754;13.040;2023-11-21T05:11:25;100311.31;;;5.75;100.00
20696;BME280;10507;52.754;13.040;2023-11-21T05:13:55;100333.25;;;5.78;100.00
20696;BME280;10507;52.754;13.040;2023-11-21T05:16:28;100287.97;;;5.61;100.00
20696;BME280;10507;52.754;13.040;2023-11-21T05:18:57;100295.00;;;5.62;100.00
20696;BME280;10507;52.754;13.040;2023-11-21T05:21:28;100296.13;;;5.55;100.00
20696;BME280;10507;52.754;13.040;2023-11-21T05:23:58;100313.72;;;5.56;100.00
20696;BME280;10507;52.754;13.040;2023-11-21T05:26:26;100313.97;;;5.50;100.00
20696;BME280;10507;52.754;13.040;2023-11-21T05:28:55;100328.94;;;5.51;100.00
20696;BME280;10507;52.754;13.040;2023-11-21T05:31:23;100343.91;;;5.52;100.00
20696;BME280;10507;52.754;13.040;2023-11-21T05:33:51;100312.44;;;5.42;100.00
20696;BME280;10507;52.754;13.040;2023-11-21T05:36:19;100339.72;;;5.45;100.00
20696;BME280;10507;52.754;13.040;2023-11-21T05:38:47;100332.75;;;5.42;100.00
20696;BME280;10507;52.754;13.040;2023-11-21T05:41:15;100335.50;;;5.39;100.00
20696;BME280;10507;52.754;13.040;2023-11-21T05:43:43;100330.38;;;5.34;100.00
20696;BME280;10507;52.754;13.040;2023-11-21T05:46:14;100345.28;;;5.37;100.00
20696;BME280;10507;52.754;13.040;2023-11-21T05:48:42;100347.22;;;5.32;100.00
20696;BME280;10507;52.754;13.040;2023-11-21T05:51:10;100360.38;;;5.33;100.00
20696;BME280;10507;52.754;13.040;2023-11-21T05:53:39;100349.91;;;5.30;100.00
20696;BME280;10507;52.754;13.040;2023-11-21T05:56:07;100330.69;;;5.25;100.00
20696;BME280;10507;52.754;13.040;2023-11-21T05:58:35;100314.03;;;5.21;100.00
20696;BME280;10507;52.754;13.040;2023-11-21T06:01:05;100302.69;;;5.18;100.00
20696;BME280;10507;52.754;13.040;2023-11-21T06:03:37;100309.59;;;5.22;100.00
20696;BME280;10507;52.754;13.040;2023-11-21T06:06:05;100308.84;;;5.18;100.00
20696;BME280;10507;52.754;13.040;2023-11-21T06:08:33;100282.47;;;5.15;100.00
20696;BME280;10507;52.754;13.040;2023-11-21T06:11:01;100271.06;;;5.13;100.00
20696;BME280;10507;52.754;13.040;2023-11-21T06:13:29;100285.94;;;5.17;100.00
20696;BME280;10507;52.754;13.040;2023-11-21T06:15:57;100292.13;;;5.18;100.00
20696;BME280;10507;52.754;13.040;2023-11-21T06:18:25;100278.88;;;5.18;100.00
20696;BME280;10507;52.754;13.040;2023-11-21T06:20:54;100284.97;;;5.20;100.00
20696;BME280;10507;52.754;13.040;2023-11-21T06:23:22;100297.25;;;5.23;100.00
20696;BME280;10507;52.754;13.040;2023-11-21T06:25:51;100284.97;;;5.20;100.00
20696;BME280;10507;52.754;13.040;2023-11-21T06:28:19;100262.19;;;5.16;100.00
20696;BME280;10507;52.754;13.040;2023-11-21T06:30:47;100286.81;;;5.18;100.00
20696;BME280;10507;52.754;13.040;2023-11-21T06:33:15;100286.00;;;5.16;100.00
20696;BME280;10507;52.754;13.040;2023-11-21T06:35:43;100293.94;;;5.16;100.00
20696;BME280;10507;52.754;13.040;2023-11-21T06:38:12;100293.88;;;5.17;100.00
20696;BME280;10507;52.754;13.040;2023-11-21T06:40:40;100328.94;;;5.24;100.00
20696;BME280;10507;52.754;13.040;2023-11-21T06:43:08;100311.44;;;5.20;100.00
20696;BME280;10507;52.754;13.040;2023-11-21T06:45:36;100327.22;;;5.23;100.00
20696;BME280;10507;52.754;13.040;2023-11-21T06:48:05;100308.84;;;5.18;100.00
20696;BME280;10507;52.754;13.040;2023-11-21T06:50:33;100287.72;;;5.17;100.00
20696;BME280;10507;52.754;13.040;2023-11-21T06:53:01;100288.66;;;5.16;100.00
20696;BME280;10507;52.754;13.040;2023-11-21T06:55:32;100274.59;;;5.14;100.00
20696;BME280;10507;52.754;13.040;2023-11-21T06:58:00;100283.44;;;5.13;100.00
20696;BME280;10507;52.754;13.040;2023-11-21T07:00:28;100262.38;;;5.10;100.00
20696;BME280;10507;52.754;13.040;2023-11-21T07:02:56;100274.66;;;5.12;100.00
20696;BME280;10507;52.754;13.040;2023-11-21T07:05:24;100231.69;;;5.04;100.00
20696;BME280;10507;52.754;13.040;2023-11-21T07:07:52;100243.06;;;5.08;100.00
20696;BME280;10507;52.754;13.040;2023-11-21T07:10:20;100262.28;;;5.13;100.00
20696;BME280;10507;52.754;13.040;2023-11-21T07:12:50;100213.91;;;5.09;100.00
20696;BME280;10507;52.754;13.040;2023-11-21T07:15:18;100207.84;;;5.06;100.00
20696;BME280;10507;52.754;13.040;2023-11-21T07:17:46;100191.97;;;5.06;100.00
20696;BME280;10507;52.754;13.040;2023-11-21T07:20:15;100198.13;;;5.06;100.00
20696;BME280;10507;52.754;13.040;2023-11-21T07:22:44;100205.06;;;5.09;100.00
20696;BME280;10507;52.754;13.040;2023-11-21T07:25:12;100215.56;;;5.12;100.00
20696;BME280;10507;52.754;13.040;2023-11-21T07:27:40;100211.19;;;5.11;100.00
20696;BME280;10507;52.754;13.040;2023-11-21T07:30:11;100228.69;;;5.15;100.00
20696;BME280;10507;52.754;13.040;2023-11-21T07:32:39;100234.78;;;5.17;100.00
20696;BME280;10507;52.754;13.040;2023-11-21T07:35:08;100226.84;;;5.17;100.00
20696;BME280;10507;52.754;13.040;2023-11-21T07:37:36;100212.81;;;5.15;100.00
20696;BME280;10507;52.754;13.040;2023-11-21T07:40:06;100246.06;;;5.22;100.00
20696;BME280;10507;52.754;13.040;2023-11-21T07:42:35;100229.50;;;5.17;100.00
20696;BME280;10507;52.754;13.040;2023-11-21T07:45:04;100220.75;;;5.15;100.00
20696;BME280;10507;52.754;13.040;2023-11-21T07:47:34;100224.22;;;5.17;100.00
20696;BME280;10507;52.754;13.040;2023-11-21T07:50:03;100187.31;;;5.12;100.00
20696;BME280;10507;52.754;13.040;2023-11-21T07:52:31;100196.88;;;5.16;100.00
20696;BME280;10507;52.754;13.040;2023-11-21T07:55:00;100186.34;;;5.15;100.00
20696;BME280;10507;52.754;13.040;2023-11-21T07:57:28;100161.78;;;5.11;100.00
20696;BME280;10507;52.754;13.040;2023-11-21T07:59:55;100155.56;;;5.12;100.00
20696;BME280;10507;52.754;13.040;2023-11-21T08:02:23;100166.94;;;5.16;100.00
20696;BME280;10507;52.754;13.040;2023-11-21T08:04:54;100132.69;;;5.11;99.86
20696;BME280;10507;52.754;13.040;2023-11-21T08:07:23;100153.91;;;5.10;99.89
20696;BME280;10507;52.754;13.040;2023-11-21T08:09:52;100146.09;;;5.07;99.98
20696;BME280;10507;52.754;13.040;2023-11-21T08:12:20;100135.50;;;5.07;100.00
20696;BME280;10507;52.754;13.040;2023-11-21T08:14:48;100156.53;;;5.10;99.51
20696;BME280;10507;52.754;13.040;2023-11-21T08:17:16;100171.44;;;5.12;99.79
20696;BME280;10507;52.754;13.040;2023-11-21T08:19:46;100207.50;;;5.15;99.92
20696;BME280;10507;52.754;13.040;2023-11-21T08:22:17;100190.78;;;5.14;99.86
20696;BME280;10507;52.754;13.040;2023-11-21T08:24:45;100203.84;;;5.19;99.35
20696;BME280;10507;52.754;13.040;2023-11-21T08:27:13;100196.84;;;5.18;99.80
20696;BME280;10507;52.754;13.040;2023-11-21T08:29:42;100151.38;;;5.07;99.31
20696;BME280;10507;52.754;13.040;2023-11-21T08:32:10;100169.00;;;5.06;99.18
20696;BME280;10507;52.754;13.040;2023-11-21T08:34:38;100194.44;;;5.10;99.91
20696;BME280;10507;52.754;13.040;2023-11-21T08:37:10;100148.81;;;5.04;98.83
20696;BME280;10507;52.754;13.040;2023-11-21T08:39:40;100143.47;;;5.05;99.17
20696;BME280;10507;52.754;13.040;2023-11-21T08:42:08;100183.69;;;5.15;99.13
20696;BME280;10507;52.754;13.040;2023-11-21T08:44:36;100184.50;;;5.17;98.85
20696;BME280;10507;52.754;13.040;2023-11-21T08:47:05;100187.97;;;5.19;98.79
20696;BME280;10507;52.754;13.040;2023-11-21T08:49:34;100183.66;;;5.16;98.81
20696;BME280;10507;52.754;13.040;2023-11-21T08:52:03;100169.56;;;5.16;98.87
20696;BME280;10507;52.754;13.040;2023-11-21T08:54:31;100142.22;;;5.15;98.37
20696;BME280;10507;52.754;13.040;2023-11-21T08:57:02;100143.16;;;5.14;98.43
20696;BME280;10507;52.754;13.040;2023-11-21T08:59:30;100217.69;;;5.27;98.48
20696;BME280;10507;52.754;13.040;2023-11-21T09:01:58;100174.78;;;5.17;98.79
20696;BME280;10507;52.754;13.040;2023-11-21T09:04:26;100144.47;;;5.03;98.99
20696;BME280;10507;52.754;13.040;2023-11-21T09:06:54;100148.34;;;4.92;99.14
20696;BME280;10507;52.754;13.040;2023-11-21T09:09:22;100180.94;;;4.93;99.66
20696;BME280;10507;52.754;13.040;2023-11-21T09:11:51;100222.41;;;4.92;99.42
20696;BME280;10507;52.754;13.040;2023-11-21T09:14:20;100233.19;;;4.86;100.00
20696;BME280;10507;52.754;13.040;2023-11-21T09:16:48;100214.06;;;4.78;100.00
20696;BME280;10507;52.754;13.040;2023-11-21T09:19:17;100245.00;;;4.76;100.00
20696;BME280;10507;52.754;13.040;2023-11-21T09:21:46;100283.66;;;4.80;100.00
20696;BME280;10507;52.754;13.040;2023-11-21T09:24:14;100311.78;;;4.83;100.00
20696;BME280;10507;52.754;13.040;2023-11-21T09:26:41;100349.66;;;4.83;100.00
20696;BME280;10507;52.754;13.040;2023-11-21T09:29:09;100381.41;;;4.83;100.00
20696;BME280;10507;52.754;13.040;2023-11-21T09:31:38;100418.31;;;4.86;100.00
20696;BME280;10507;52.754;13.040;2023-11-21T09:34:06;100429.00;;;4.83;100.00
20696;BME280;10507;52.754;13.040;2023-11-21T09:36:34;100431.66;;;4.83;100.00
20696;BME280;10507;52.754;13.040;2023-11-21T09:39:04;100420.41;;;4.76;100.00
20696;BME280;10507;52.754;13.040;2023-11-21T09:41:40;100465.09;;;4.86;100.00
20696;BME280;10507;52.754;13.040;2023-11-21T09:44:13;100503.75;;;4.90;100.00
20696;BME280;10507;52.754;13.040;2023-11-21T09:46:47;100488.84;;;4.87;100.00
20696;BME280;10507;52.754;13.040;2023-11-21T09:49:18;100464.44;;;4.77;100.00
20696;BME280;10507;52.754;13.040;2023-11-21T09:51:46;100501.16;;;4.88;100.00
20696;BME280;10507;52.754;13.040;2023-11-21T09:54:15;100495.03;;;4.86;100.00
20696;BME280;10507;52.754;13.040;2023-11-21T09:56:45;100506.28;;;4.94;100.00
20696;BME280;10507;52.754;13.040;2023-11-21T09:59:15;100498.38;;;4.93;100.00
20696;BME280;10507;52.754;13.040;2023-11-21T10:01:44;100462.41;;;4.87;100.00
20696;BME280;10507;52.754;13.040;2023-11-21T10:04:13;100447.44;;;4.86;100.00
20696;BME280;10507;52.754;13.040;2023-11-21T10:06:43;100425.44;;;4.84;100.00
20696;BME280;10507;52.754;13.040;2023-11-21T10:09:13;100408.78;;;4.82;100.00
20696;BME280;10507;52.754;13.040;2023-11-21T10:11:42;100420.09;;;4.87;100.00
20696;BME280;10507;52.754;13.040;2023-11-21T10:14:11;100414.78;;;4.87;100.00
20696;BME280;10507;52.754;13.040;2023-11-21T10:16:41;100367.47;;;4.78;100.00
20696;BME280;10507;52.754;13.040;2023-11-21T10:19:15;100392.91;;;4.82;100.00
20696;BME280;10507;52.754;13.040;2023-11-21T10:21:43;100399.97;;;4.82;100.00
20696;BME280;10507;52.754;13.040;2023-11-21T10:24:11;100393.09;;;4.76;100.00
20696;BME280;10507;52.754;13.040;2023-11-21T10:26:39;100437.94;;;4.79;100.00
20696;BME280;10507;52.754;13.040;2023-11-21T10:29:19;100450.44;;;4.74;100.00
20696;BME280;10507;52.754;13.040;2023-11-21T10:31:49;100460.09;;;4.75;100.00
20696;BME280;10507;52.754;13.040;2023-11-21T10:34:20;100480.41;;;4.74;100.00
20696;BME280;10507;52.754;13.040;2023-11-21T10:36:48;100469.09;;;4.69;100.00
20696;BME280;10507;52.754;13.040;2023-11-21T10:39:17;100464.81;;;4.65;100.00
20696;BME280;10507;52.754;13.040;2023-11-21T10:41:46;100477.06;;;4.68;100.00
20696;BME280;10507;52.754;13.040;2023-11-21T10:44:14;100503.25;;;4.77;100.00
20696;BME280;10507;52.754;13.040;2023-11-21T10:46:47;100584.53;;;5.03;100.00
20696;BME280;10507;52.754;13.040;2023-11-21T10:49:19;100606.13;;;5.19;100.00
20696;BME280;10507;52.754;13.040;2023-11-21T10:51:47;100591.78;;;5.26;100.00
20696;BME280;10507;52.754;13.040;2023-11-21T10:54:18;100560.75;;;5.31;100.00
20696;BME280;10507;52.754;13.040;2023-11-21T10:56:49;100512.56;;;5.20;100.00
20696;BME280;10507;52.754;13.040;2023-11-21T10:59:18;100478.44;;;5.11;100.00
20696;BME280;10507;52.754;13.040;2023-11-21T11:01:47;100444.31;;;5.02;100.00
20696;BME280;10507;52.754;13.040;2023-11-21T11:04:19;100448.88;;;4.98;100.00
20696;BME280;10507;52.754;13.040;2023-11-21T11:06:54;100444.88;;;4.83;100.00
20696;BME280;10507;52.754;13.040;2023-11-21T11:09:23;100401.31;;;4.67;100.00
20696;BME280;10507;52.754;13.040;2023-11-21T11:11:51;100326.88;;;4.51;100.00
20696;BME280;10507;52.754;13.040;2023-11-21T11:14:19;100304.16;;;4.44;100.00
20696;BME280;10507;52.754;13.040;2023-11-21T11:16:53;100250.63;;;4.37;99.93
20696;BME280;10507;52.754;13.040;2023-11-21T11:19:23;100236.53;;;4.36;99.78
20696;BME280;10507;52.754;13.040;2023-11-21T11:22:00;100253.91;;;4.45;99.37
20696;BME280;10507;52.754;13.040;2023-11-21T11:24:57;100241.47;;;4.49;99.24
20696;BME280;10507;52.754;13.040;2023-11-21T11:27:40;100252.63;;;4.57;98.94
20696;BME280;10507;52.754;13.040;2023-11-21T11:30:16;100232.38;;;4.57;98.73
20696;BME280;10507;52.754;13.040;2023-11-21T11:32:57;100210.28;;;4.58;97.27
20696;BME280;10507;52.754;13.040;2023-11-21T11:35:34;100226.97;;;4.61;97.32
20696;BME280;10507;52.754;13.040;2023-11-21T11:38:06;100188.31;;;4.56;97.13
20696;BME280;10507;52.754;13.040;2023-11-21T11:40:40;100165.66;;;4.49;96.89
20696;BME280;10507;52.754;13.040;2023-11-21T11:43:09;100164.72;;;4.50;97.04
20696;BME280;10507;52.754;13.040;2023-11-21T11:45:38;100170.00;;;4.50;96.43
20696;BME280;10507;52.754;13.040;2023-11-21T11:48:11;100174.28;;;4.54;96.06
20696;BME280;10507;52.754;13.040;2023-11-21T11:51:01;100176.78;;;4.59;96.37
20696;BME280;10507;52.754;13.040;2023-11-21T11:53:35;100147.84;;;4.54;96.20
20696;BME280;10507;52.754;13.040;2023-11-21T11:56:22;100175.06;;;4.58;96.33
20696;BME280;10507;52.754;13.040;2023-11-21T11:58:53;100102.56;;;4.38;95.96
20696;BME280;10507;52.754;13.040;2023-11-21T12:01:24;100101.06;;;4.31;95.73
20696;BME280;10507;52.754;13.040;2023-11-21T12:04:26;100138.19;;;4.27;96.42
20696;BME280;10507;52.754;13.040;2023-11-21T12:07:04;100170.09;;;4.21;97.16
20696;BME280;10507;52.754;13.040;2023-11-21T12:09:33;100200.28;;;4.13;97.38
20696;BME280;10507;52.754;13.040;2023-11-21T12:12:02;100212.84;;;4.05;97.89
20696;BME280;10507;52.754;13.040;2023-11-21T12:14:30;100243.78;;;4.02;98.07
20696;BME280;10507;52.754;13.040;2023-11-21T12:16:58;100300.78;;;4.09;98.06
20696;BME280;10507;52.754;13.040;2023-11-21T12:19:27;100302.56;;;4.08;98.76
20696;BME280;10507;52.754;13.040;2023-11-21T12:21:55;100330.72;;;4.09;98.73
20696;BME280;10507;52.754;13.040;2023-11-21T12:24:24;100340.28;;;4.13;98.68
20696;BME280;10507;52.754;13.040;2023-11-21T12:26:55;100328.03;;;4.11;99.08
20696;BME280;10507;52.754;13.040;2023-11-21T12:29:23;100399.09;;;4.20;99.00
20696;BME280;10507;52.754;13.040;2023-11-21T12:31:51;100372.81;;;4.15;99.14
20696;BME280;10507;52.754;13.040;2023-11-21T12:34:19;100434.06;;;4.30;99.17
20696;BME280;10507;52.754;13.040;2023-11-21T12:36:47;100441.97;;;4.31;99.07
20696;BME280;10507;52.754;13.040;2023-11-21T12:39:16;100406.69;;;4.32;98.84
20696;BME280;10507;52.754;13.040;2023-11-21T12:41:45;100377.84;;;4.25;98.26
20696;BME280;10507;52.754;13.040;2023-11-21T12:44:13;100343.72;;;4.17;98.08
20696;BME280;10507;52.754;13.040;2023-11-21T12:46:43;100355.97;;;4.20;98.31
20696;BME280;10507;52.754;13.040;2023-11-21T12:49:13;100347.25;;;4.16;97.98
20696;BME280;10507;52.754;13.040;2023-11-21T12:51:45;100338.47;;;4.15;97.50
20696;BME280;10507;52.754;13.040;2023-11-21T12:54:13;100331.31;;;4.19;97.59